Time;durP1;ratioP1;P1;durP2;ratioP2;P2;SDS_P1;SDS_P2;PMS_P1;PMS_P2;Temp;Humidity;BMP_temperature;BMP_pressure;BME280_temperature;BME280_humidity;BME280_pressure;Samples;Min_cycle;Max_cycle;Signal;HPM_P1;HPM_P2
2021/07/09 00:02:21;;;;;;;8.07;7.77;;;23.80;99.90;;;;;;3535262;40;20447;-59
2021/07/09 00:04:50;;;;;;;8.70;8.20;;;23.80;99.90;;;;;;3536013;40;20514;-59
2021/07/09 00:07:17;;;;;;;8.63;8.23;;;23.80;99.90;;;;;;3535643;40;20921;-57
2021/07/09 00:09:47;;;;;;;8.40;8.00;;;23.80;99.90;;;;;;3536023;40;20463;-59
2021/07/09 00:12:14;;;;;;;8.33;7.83;;;23.80;99.90;;;;;;3535671;40;20462;-55
2021/07/09 00:14:41;;;;;;;7.80;7.40;;;23.80;99.90;;;;;;3535722;40;20470;-58
2021/07/09 00:17:09;;;;;;;8.70;8.30;;;23.80;99.90;;;;;;3535548;40;20482;-57
2021/07/09 00:19:37;;;;;;;8.53;8.10;;;23.90;99.90;;;;;;3535238;40;20474;-57
2021/07/09 00:22:08;;;;;;;8.93;8.53;;;23.80;99.90;;;;;;3535207;40;20470;-57
2021/07/09 00:24:36;;;;;;;8.23;7.73;;;23.90;99.90;;;;;;3535466;40;21069;-58
2021/07/09 00:27:04;;;;;;;8.20;7.83;;;23.80;99.90;;;;;;3526227;40;20466;-58
2021/07/09 00:29:31;;;;;;;8.80;8.20;;;23.90;99.90;;;;;;3534921;40;20466;-58
2021/07/09 00:31:58;;;;;;;7.70;7.20;;;23.80;99.90;;;;;;3526829;40;20470;-56
2021/07/09 00:34:26;;;;;;;7.80;7.50;;;23.90;99.90;;;;;;3535291;40;20865;-59
2021/07/09 00:36:53;;;;;;;8.77;8.13;;;23.80;99.90;;;;;;3535600;40;20496;-59
2021/07/09 00:39:22;;;;;;;8.07;7.77;;;23.90;99.90;;;;;;3535768;40;20459;-58
2021/07/09 00:41:49;;;;;;;8.53;8.03;;;23.80;99.90;;;;;;3535960;40;20625;-58
2021/07/09 00:44:16;;;;;;;9.03;8.53;;;23.80;99.90;;;;;;3535573;40;20455;-57
2021/07/09 00:46:45;;;;;;;7.53;7.23;;;23.80;99.90;;;;;;3535383;40;20447;-58
2021/07/09 00:49:12;;;;;;;8.00;7.67;;;23.80;99.90;;;;;;3535583;40;20463;-58
2021/07/09 00:51:41;;;;;;;8.33;7.93;;;23.80;99.90;;;;;;3535469;40;20470;-58
2021/07/09 00:54:08;;;;;;;8.27;7.87;;;23.80;99.90;;;;;;3526813;40;20517;-58
2021/07/09 00:56:37;;;;;;;7.83;7.53;;;23.80;99.90;;;;;;3535338;40;20447;-59
2021/07/09 00:59:06;;;;;;;8.00;7.60;;;23.80;99.90;;;;;;3534872;40;20545;-58
2021/07/09 01:01:34;;;;;;;8.13;7.73;;;23.80;99.90;;;;;;3525569;40;20925;-58
2021/07/09 01:04:01;;;;;;;8.73;8.13;;;23.80;99.90;;;;;;3534976;40;20493;-58
2021/07/09 01:06:28;;;;;;;7.90;7.60;;;23.80;99.90;;;;;;3525457;40;20459;-59
2021/07/09 01:08:55;;;;;;;8.70;8.20;;;23.80;99.90;;;;;;3534641;40;20467;-59
2021/07/09 01:11:24;;;;;;;8.40;8.00;;;23.80;99.90;;;;;;3534526;40;20446;-59
2021/07/09 01:13:53;;;;;;;8.00;7.50;;;23.80;99.90;;;;;;3534407;40;20577;-59
2021/07/09 01:16:20;;;;;;;8.47;8.00;;;23.80;99.90;;;;;;3535118;40;20463;-59
2021/07/09 01:18:48;;;;;;;8.40;8.00;;;23.80;99.90;;;;;;3534916;40;20463;-59
2021/07/09 01:21:15;;;;;;;8.00;7.60;;;23.80;99.90;;;;;;3534582;40;20497;-58
2021/07/09 01:23:43;;;;;;;8.47;8.07;;;23.80;99.90;;;;;;3535372;40;20474;-59
2021/07/09 01:26:12;;;;;;;8.10;7.60;;;23.80;99.90;;;;;;3535031;40;20490;-58
2021/07/09 01:28:40;;;;;;;8.50;8.10;;;23.80;99.90;;;;;;3535002;40;20455;-59
2021/07/09 01:31:09;;;;;;;8.10;7.80;;;23.80;99.90;;;;;;3535291;40;20920;-58
2021/07/09 01:33:37;;;;;;;8.90;8.50;;;23.80;99.90;;;;;;3535555;40;20490;-59
2021/07/09 01:36:05;;;;;;;8.67;8.27;;;23.80;99.90;;;;;;3535193;40;20458;-59
2021/07/09 01:38:33;;;;;;;8.57;8.10;;;23.80;99.90;;;;;;3535086;40;20451;-59
2021/07/09 01:41:00;;;;;;;8.60;8.20;;;23.80;99.90;;;;;;3535215;40;20450;-58
2021/07/09 01:43:29;;;;;;;8.60;8.20;;;23.80;99.90;;;;;;3535198;40;20493;-58
2021/07/09 01:45:58;;;;;;;8.67;8.23;;;23.80;99.90;;;;;;3534806;40;20458;-56
2021/07/09 01:48:26;;;;;;;9.23;8.83;;;23.80;99.90;;;;;;3535240;40;20519;-59
2021/07/09 01:50:53;;;;;;;8.80;8.40;;;23.80;99.90;;;;;;3535258;40;20741;-59
2021/07/09 01:53:20;;;;;;;8.70;8.30;;;23.80;99.90;;;;;;3534778;40;20487;-60
2021/07/09 01:55:48;;;;;;;8.80;8.20;;;23.80;99.90;;;;;;3534621;40;20454;-58
2021/07/09 01:58:15;;;;;;;8.60;8.20;;;23.80;99.90;;;;;;3534853;40;20850;-59
2021/07/09 02:00:45;;;;;;;8.37;7.80;;;23.80;99.90;;;;;;3534930;40;20466;-59
2021/07/09 02:03:12;;;;;;;9.10;8.70;;;23.80;99.90;;;;;;3536210;40;20854;-59
2021/07/09 02:05:39;;;;;;;8.60;8.20;;;23.80;99.90;;;;;;3535522;40;20466;-59
2021/07/09 02:08:07;;;;;;;8.93;8.53;;;23.80;99.90;;;;;;3536455;40;20489;-59
2021/07/09 02:10:38;;;;;;;8.47;8.13;;;23.80;99.90;;;;;;3536680;40;20549;-58
2021/07/09 02:13:05;;;;;;;9.87;9.03;;;23.80;99.90;;;;;;3536775;40;20912;-58
2021/07/09 02:15:35;;;;;;;9.33;8.83;;;23.80;99.90;;;;;;3536153;40;21099;-58
2021/07/09 02:18:04;;;;;;;9.10;8.50;;;23.80;99.90;;;;;;3536632;40;20462;-59
2021/07/09 02:20:33;;;;;;;8.80;8.40;;;23.80;99.90;;;;;;3536384;40;20503;-58
2021/07/09 02:23:02;;;;;;;9.33;8.93;;;23.80;99.90;;;;;;3536972;40;20469;-59
2021/07/09 02:25:29;;;;;;;8.80;8.37;;;23.80;99.90;;;;;;3536784;40;20650;-59
2021/07/09 02:27:57;;;;;;;10.37;9.87;;;23.80;99.90;;;;;;3536391;40;20523;-59
2021/07/09 02:30:26;;;;;;;8.70;8.30;;;23.80;99.90;;;;;;3536813;40;20455;-57
2021/07/09 02:32:53;;;;;;;9.53;9.13;;;23.80;99.90;;;;;;3536441;40;20817;-59
2021/07/09 02:35:24;;;;;;;9.23;8.83;;;23.80;99.90;;;;;;3537404;40;20868;-58
2021/07/09 02:37:52;;;;;;;9.50;9.10;;;23.80;99.90;;;;;;3536261;40;20444;-58
2021/07/09 02:40:22;;;;;;;8.90;8.60;;;23.80;99.90;;;;;;3536106;40;20478;-58
2021/07/09 02:42:51;;;;;;;10.37;9.77;;;23.80;99.90;;;;;;3526290;40;20752;-58
2021/07/09 02:45:19;;;;;;;9.50;9.00;;;23.80;99.90;;;;;;3536447;40;20451;-58
2021/07/09 02:47:47;;;;;;;9.50;9.10;;;23.80;99.90;;;;;;3535915;40;20467;-59
2021/07/09 02:50:16;;;;;;;9.30;8.90;;;23.80;99.90;;;;;;3536354;40;20459;-58
2021/07/09 02:52:45;;;;;;;8.77;8.37;;;23.80;99.90;;;;;;3536105;40;20447;-56
2021/07/09 02:55:13;;;;;;;9.37;8.77;;;23.80;99.90;;;;;;3536446;40;20475;-58
2021/07/09 02:57:41;;;;;;;10.10;9.50;;;23.80;99.90;;;;;;3536066;40;20435;-59
2021/07/09 03:00:11;;;;;;;10.03;9.43;;;23.80;99.90;;;;;;3535715;40;20576;-59
2021/07/09 03:02:39;;;;;;;8.93;8.53;;;23.80;99.90;;;;;;3536574;40;20462;-58
2021/07/09 03:05:08;;;;;;;9.10;8.70;;;23.80;99.90;;;;;;3537604;40;20772;-59
2021/07/09 03:07:35;;;;;;;9.60;9.20;;;23.80;99.90;;;;;;3536140;40;20473;-58
2021/07/09 03:10:06;;;;;;;8.80;8.43;;;23.80;99.90;;;;;;3526943;40;20457;-59
2021/07/09 03:12:33;;;;;;;9.33;8.93;;;23.80;99.90;;;;;;3520122;40;20472;-59
2021/07/09 03:15:01;;;;;;;9.90;9.47;;;23.80;99.90;;;;;;3514353;40;20475;-58
2021/07/09 03:17:28;;;;;;;9.10;8.70;;;23.80;99.90;;;;;;3524896;40;20536;-58
2021/07/09 03:19:55;;;;;;;9.70;9.30;;;23.80;99.90;;;;;;3525217;40;20472;-58
2021/07/09 03:22:22;;;;;;;9.13;8.73;;;23.80;99.90;;;;;;3525615;40;20543;-59
2021/07/09 03:24:50;;;;;;;9.47;9.00;;;23.80;99.90;;;;;;3525910;40;20456;-58
2021/07/09 03:27:19;;;;;;;9.27;8.87;;;23.80;99.90;;;;;;3532585;40;20511;-59
2021/07/09 03:29:46;;;;;;;10.10;9.60;;;23.80;99.90;;;;;;3524861;40;20460;-58
2021/07/09 03:32:13;;;;;;;9.13;8.73;;;23.80;99.90;;;;;;3524949;40;20470;-59
2021/07/09 03:34:40;;;;;;;9.13;8.73;;;23.70;99.90;;;;;;3525728;40;20467;-58
2021/07/09 03:37:07;;;;;;;8.37;8.07;;;23.70;99.90;;;;;;3525762;40;20463;-59
2021/07/09 03:39:34;;;;;;;8.50;8.20;;;23.70;99.90;;;;;;3529196;40;20466;-58
2021/07/09 03:42:01;;;;;;;8.67;8.17;;;23.80;99.90;;;;;;3535311;40;20487;-58
2021/07/09 03:44:30;;;;;;;8.10;7.80;;;23.80;99.90;;;;;;3535301;40;21178;-58
2021/07/09 03:46:57;;;;;;;8.00;7.70;;;23.70;99.90;;;;;;3535055;40;20473;-59
2021/07/09 03:49:24;;;;;;;9.47;9.10;;;23.70;99.90;;;;;;3534919;40;20474;-59
2021/07/09 03:51:51;;;;;;;9.37;8.80;;;23.80;99.90;;;;;;3535116;40;20470;-59
2021/07/09 03:54:18;;;;;;;9.20;8.70;;;23.70;99.90;;;;;;3534210;40;20884;-58
2021/07/09 03:56:46;;;;;;;9.50;9.10;;;23.70;99.90;;;;;;3535234;40;20446;-59
2021/07/09 03:59:13;;;;;;;9.30;8.90;;;23.70;99.90;;;;;;3535084;40;20454;-58
2021/07/09 04:01:42;;;;;;;8.80;8.40;;;23.70;99.90;;;;;;3533620;40;20533;-59
2021/07/09 04:04:09;;;;;;;8.50;8.20;;;23.70;99.90;;;;;;3535264;40;20880;-59
2021/07/09 04:06:36;;;;;;;9.30;8.60;;;23.70;99.90;;;;;;3534803;40;20466;-58
2021/07/09 04:09:04;;;;;;;9.70;9.30;;;23.70;99.90;;;;;;3534222;40;20808;-58
2021/07/09 04:11:31;;;;;;;9.80;9.20;;;23.70;99.90;;;;;;3532411;40;20451;-59
2021/07/09 04:13:59;;;;;;;9.23;8.83;;;23.70;99.90;;;;;;3524745;40;20476;-58
2021/07/09 04:16:26;;;;;;;9.10;8.70;;;23.70;99.90;;;;;;3523508;40;20713;-57
2021/07/09 04:18:55;;;;;;;9.37;8.97;;;23.70;99.90;;;;;;3522794;40;20480;-59
2021/07/09 04:21:22;;;;;;;9.50;9.10;;;23.70;99.90;;;;;;3515275;40;20456;-58
2021/07/09 04:23:50;;;;;;;10.83;10.27;;;23.70;99.90;;;;;;3523648;40;20558;-58
2021/07/09 04:26:17;;;;;;;10.20;9.70;;;23.70;99.90;;;;;;3523296;40;20487;-57
2021/07/09 04:28:44;;;;;;;8.90;8.50;;;23.70;99.90;;;;;;3523388;40;20462;-58
2021/07/09 04:31:12;;;;;;;10.27;9.87;;;23.70;99.90;;;;;;3523602;40;20776;-59
2021/07/09 04:33:39;;;;;;;10.00;9.60;;;23.70;99.90;;;;;;3524321;40;20459;-58
2021/07/09 04:36:07;;;;;;;9.40;8.90;;;23.70;99.90;;;;;;3523569;40;20597;-59
2021/07/09 04:38:35;;;;;;;9.70;9.30;;;23.70;99.90;;;;;;3523473;40;20467;-57
2021/07/09 04:41:02;;;;;;;9.00;8.70;;;23.70;99.90;;;;;;3532492;40;20514;-58
2021/07/09 04:43:29;;;;;;;9.53;9.13;;;23.70;99.90;;;;;;3531629;40;20481;-58
2021/07/09 04:45:56;;;;;;;9.57;9.17;;;23.70;99.90;;;;;;3532227;40;20497;-58
2021/07/09 04:48:24;;;;;;;9.50;9.10;;;23.70;99.90;;;;;;3530918;40;20461;-58
2021/07/09 04:50:51;;;;;;;9.60;9.20;;;23.70;99.90;;;;;;3529888;40;20680;-58
2021/07/09 04:53:20;;;;;;;8.77;8.27;;;23.70;99.90;;;;;;3529897;40;20459;-59
2021/07/09 04:55:47;;;;;;;9.43;8.97;;;23.70;99.90;;;;;;3529797;40;20483;-57
2021/07/09 04:58:14;;;;;;;9.87;9.37;;;23.70;99.90;;;;;;3537129;40;20467;-59
2021/07/09 05:00:42;;;;;;;9.40;9.00;;;23.70;99.90;;;;;;3529934;40;20477;-59
2021/07/09 05:03:09;;;;;;;10.00;9.50;;;23.70;99.90;;;;;;3530851;40;20454;-59
2021/07/09 05:05:36;;;;;;;9.90;9.40;;;23.70;99.90;;;;;;3530023;40;20490;-59
2021/07/09 05:08:04;;;;;;;10.13;9.43;;;23.70;99.90;;;;;;3531258;40;20451;-58
2021/07/09 05:10:33;;;;;;;10.20;9.70;;;23.70;99.90;;;;;;3530485;40;20479;-59
2021/07/09 05:13:00;;;;;;;9.20;8.80;;;23.70;99.90;;;;;;3530826;40;20462;-59
2021/07/09 05:15:27;;;;;;;10.20;9.60;;;23.70;99.90;;;;;;3528741;40;20467;-58
2021/07/09 05:17:54;;;;;;;9.30;8.80;;;23.70;99.90;;;;;;3529257;40;20651;-59
2021/07/09 05:20:21;;;;;;;10.00;9.60;;;23.70;99.90;;;;;;3528180;40;20470;-57
2021/07/09 05:22:49;;;;;;;9.50;9.10;;;23.70;99.90;;;;;;3528917;40;20796;-58
2021/07/09 05:25:16;;;;;;;9.97;9.57;;;23.70;99.90;;;;;;3527026;40;20462;-58
2021/07/09 05:27:45;;;;;;;9.90;9.50;;;23.70;99.90;;;;;;3526675;40;20455;-58
2021/07/09 05:30:14;;;;;;;9.80;9.30;;;23.70;99.90;;;;;;3526985;40;20459;-58
2021/07/09 05:32:44;;;;;;;9.80;9.40;;;23.70;99.90;;;;;;3528023;40;20953;-59
2021/07/09 05:35:12;;;;;;;9.60;9.10;;;23.70;99.90;;;;;;3527279;40;20483;-58
2021/07/09 05:37:40;;;;;;;9.13;8.53;;;23.70;99.90;;;;;;3527785;40;21038;-59
2021/07/09 05:40:08;;;;;;;9.80;9.40;;;23.70;99.90;;;;;;3529312;40;20443;-59
2021/07/09 05:42:35;;;;;;;9.20;8.80;;;23.70;99.90;;;;;;3528929;40;20489;-59
2021/07/09 05:45:04;;;;;;;9.00;8.40;;;23.70;99.90;;;;;;3534290;40;20869;-59
2021/07/09 05:47:32;;;;;;;9.47;8.97;;;23.70;99.90;;;;;;3519362;40;20451;-58
2021/07/09 05:49:59;;;;;;;9.30;8.90;;;23.70;99.90;;;;;;3526849;40;20462;-58
2021/07/09 05:52:27;;;;;;;10.63;10.10;;;23.70;99.90;;;;;;3523950;40;20481;-59
2021/07/09 05:54:54;;;;;;;9.90;9.50;;;23.70;99.90;;;;;;3524881;40;20477;-60
2021/07/09 05:57:21;;;;;;;9.67;9.27;;;23.70;99.90;;;;;;3525020;40;20470;-59
2021/07/09 05:59:48;;;;;;;10.00;9.50;;;23.70;99.90;;;;;;3523796;40;20459;-60
2021/07/09 06:02:18;;;;;;;10.27;9.87;;;23.70;99.90;;;;;;3521368;40;20469;-60
2021/07/09 06:04:45;;;;;;;9.47;9.00;;;23.70;99.90;;;;;;3524512;40;20462;-60
2021/07/09 06:07:13;;;;;;;9.27;8.97;;;23.70;99.90;;;;;;3521615;40;20470;-59
2021/07/09 06:09:40;;;;;;;9.97;9.37;;;23.70;99.90;;;;;;3524682;40;20444;-60
2021/07/09 06:12:08;;;;;;;10.27;9.50;;;23.70;99.90;;;;;;3525367;40;20474;-60
2021/07/09 06:14:35;;;;;;;9.73;9.10;;;23.70;99.90;;;;;;3522677;40;20809;-60
2021/07/09 06:17:03;;;;;;;9.23;8.83;;;23.70;99.90;;;;;;3520812;40;20462;-60
2021/07/09 06:19:31;;;;;;;9.60;9.20;;;23.70;99.90;;;;;;3522798;40;20513;-60
2021/07/09 06:21:59;;;;;;;10.00;9.60;;;23.70;99.90;;;;;;3523428;40;20451;-60
2021/07/09 06:24:26;;;;;;;9.17;8.70;;;23.70;99.90;;;;;;3523041;40;20465;-59
2021/07/09 06:26:54;;;;;;;9.70;9.30;;;23.70;99.90;;;;;;3523110;40;20486;-60
2021/07/09 06:29:21;;;;;;;9.70;9.30;;;23.70;99.90;;;;;;3521037;40;20944;-60
2021/07/09 06:31:48;;;;;;;9.63;9.23;;;23.70;99.90;;;;;;3522314;40;20502;-59
2021/07/09 06:34:16;;;;;;;9.40;9.00;;;23.70;99.90;;;;;;3520061;40;20463;-61
2021/07/09 06:36:44;;;;;;;8.93;8.53;;;23.70;99.90;;;;;;3522448;40;20470;-59
2021/07/09 06:39:11;;;;;;;9.90;9.50;;;23.70;99.90;;;;;;3520434;40;20471;-59
2021/07/09 06:41:38;;;;;;;10.37;9.90;;;23.70;99.90;;;;;;3519513;40;20836;-60
2021/07/09 06:44:06;;;;;;;10.17;9.77;;;23.70;99.90;;;;;;3521762;40;20959;-61
2021/07/09 06:46:33;;;;;;;10.10;9.70;;;23.70;99.90;;;;;;3517054;40;20464;-60
2021/07/09 06:49:01;;;;;;;9.83;9.43;;;23.70;99.90;;;;;;3519713;40;20901;-61
2021/07/09 06:51:28;;;;;;;9.10;8.80;;;23.70;99.90;;;;;;3513647;40;20528;-61
2021/07/09 06:53:57;;;;;;;9.17;8.87;;;23.70;99.90;;;;;;3517981;40;20459;-61
2021/07/09 06:56:42;;;;;;;10.00;9.60;;;23.70;99.90;;;;;;3517719;40;20482;-61
2021/07/09 06:59:09;;;;;;;10.23;9.83;;;23.70;99.90;;;;;;3517413;40;20482;-61
2021/07/09 07:01:39;;;;;;;10.30;9.70;;;23.70;99.90;;;;;;3518980;40;20483;-60
2021/07/09 07:04:29;;;;;;;9.60;9.20;;;23.70;99.90;;;;;;3514634;40;20498;-60
2021/07/09 07:06:56;;;;;;;10.13;9.73;;;23.70;99.90;;;;;;3515501;40;20462;-60
2021/07/09 07:09:25;;;;;;;10.07;9.57;;;23.70;99.90;;;;;;3516860;40;20479;-61
2021/07/09 07:11:57;;;;;;;9.43;9.03;;;23.70;99.90;;;;;;3517327;40;20732;-61
2021/07/09 07:14:24;;;;;;;9.63;9.13;;;23.70;99.90;;;;;;3516349;40;20549;-60
2021/07/09 07:16:51;;;;;;;10.00;9.47;;;23.70;99.90;;;;;;3518193;40;20702;-60
2021/07/09 07:19:19;;;;;;;9.23;8.83;;;23.70;99.90;;;;;;3518333;40;21128;-61
2021/07/09 07:21:46;;;;;;;9.00;8.70;;;23.70;99.90;;;;;;3521183;40;20455;-61
2021/07/09 07:24:13;;;;;;;10.20;9.80;;;23.70;99.90;;;;;;3519546;40;20547;-60
2021/07/09 07:26:45;;;;;;;10.00;9.43;;;23.70;99.90;;;;;;3516748;40;20767;-60
2021/07/09 07:29:21;;;;;;;9.30;9.00;;;23.70;99.90;;;;;;3517051;40;20737;-61
2021/07/09 07:31:48;;;;;;;9.30;8.90;;;23.70;99.90;;;;;;3516208;40;20517;-61
2021/07/09 07:34:30;;;;;;;9.70;8.87;;;23.70;99.90;;;;;;3516001;40;20588;-62
2021/07/09 07:36:58;;;;;;;8.57;8.07;;;23.70;99.90;;;;;;3518191;40;20530;-62
2021/07/09 07:39:25;;;;;;;9.13;8.73;;;23.70;99.90;;;;;;3519150;40;21173;-62
2021/07/09 07:41:53;;;;;;;8.97;8.57;;;23.70;99.90;;;;;;3518599;40;20841;-62
2021/07/09 07:44:21;;;;;;;9.30;8.90;;;23.70;99.90;;;;;;3522978;40;20921;-62
2021/07/09 07:46:50;;;;;;;9.70;9.20;;;23.80;99.90;;;;;;3527174;40;20526;-61
2021/07/09 07:49:17;;;;;;;9.87;9.47;;;23.70;99.90;;;;;;3515580;40;20785;-62
2021/07/09 07:51:44;;;;;;;10.00;9.30;;;23.80;99.90;;;;;;3517344;40;20439;-62
2021/07/09 07:54:11;;;;;;;8.83;8.50;;;23.80;99.90;;;;;;3513856;40;20783;-62
2021/07/09 07:56:39;;;;;;;8.50;8.20;;;23.80;99.90;;;;;;3514162;40;20578;-62
2021/07/09 07:59:07;;;;;;;8.97;8.67;;;23.80;99.90;;;;;;3513365;40;20576;-62
2021/07/09 08:01:34;;;;;;;8.30;8.00;;;23.80;99.90;;;;;;3514471;40;21155;-62
2021/07/09 08:04:02;;;;;;;8.63;8.23;;;23.80;99.90;;;;;;3515201;40;21008;-61
2021/07/09 08:06:29;;;;;;;8.90;8.60;;;23.80;99.90;;;;;;3516542;40;20482;-62
2021/07/09 08:08:56;;;;;;;9.90;9.50;;;23.80;99.90;;;;;;3517477;40;21018;-62
2021/07/09 08:11:23;;;;;;;9.10;8.70;;;23.80;99.90;;;;;;3513734;40;20483;-62
2021/07/09 08:13:51;;;;;;;10.00;9.43;;;23.80;99.90;;;;;;3514763;40;20802;-62
2021/07/09 08:16:20;;;;;;;9.87;9.47;;;23.80;99.90;;;;;;3518690;40;20926;-62
2021/07/09 08:18:47;;;;;;;8.80;8.50;;;23.80;99.90;;;;;;3506112;40;20485;-62
2021/07/09 08:21:14;;;;;;;10.10;9.70;;;23.80;99.90;;;;;;3512164;40;20517;-62
2021/07/09 08:23:55;;;;;;;10.17;9.77;;;23.80;99.90;;;;;;3510369;40;20535;-62
2021/07/09 08:26:22;;;;;;;9.73;9.37;;;23.80;99.90;;;;;;3519378;40;20470;-62
2021/07/09 08:28:50;;;;;;;10.57;9.97;;;23.80;99.90;;;;;;3519913;40;20454;-62
2021/07/09 08:31:19;;;;;;;9.33;9.03;;;23.70;99.90;;;;;;3505392;40;20475;-62
2021/07/09 08:33:46;;;;;;;10.07;9.60;;;23.80;99.90;;;;;;3517322;40;20499;-62
2021/07/09 08:36:13;;;;;;;10.00;9.50;;;23.80;99.90;;;;;;3514539;40;20474;-62
2021/07/09 08:38:42;;;;;;;10.03;9.47;;;23.80;99.90;;;;;;3514066;40;20715;-62
2021/07/09 08:41:13;;;;;;;11.40;10.63;;;23.80;99.90;;;;;;3516907;40;20485;-62
2021/07/09 08:43:52;;;;;;;10.50;10.10;;;23.80;99.90;;;;;;3515123;40;20481;-62
2021/07/09 08:46:24;;;;;;;10.13;9.73;;;23.80;99.90;;;;;;3517885;40;20671;-62
2021/07/09 08:48:51;;;;;;;10.60;10.20;;;23.80;99.90;;;;;;3503754;40;21067;-62
2021/07/09 08:51:18;;;;;;;10.37;9.87;;;23.80;99.90;;;;;;3513296;40;20515;-62
2021/07/09 08:53:45;;;;;;;9.73;9.33;;;23.80;99.90;;;;;;3512848;40;20727;-61
2021/07/09 08:56:15;;;;;;;10.20;9.80;;;23.80;99.90;;;;;;3512907;40;20514;-62
2021/07/09 08:58:42;;;;;;;11.03;10.43;;;23.80;99.90;;;;;;3511443;40;20474;-62
2021/07/09 09:01:13;;;;;;;10.40;9.90;;;23.80;99.90;;;;;;3511917;40;20510;-62
2021/07/09 09:03:41;;;;;;;11.23;10.80;;;23.80;99.90;;;;;;3513910;40;20458;-62
2021/07/09 09:06:15;;;;;;;10.97;10.33;;;23.80;99.90;;;;;;3511487;40;20705;-62
2021/07/09 09:08:45;;;;;;;10.30;9.80;;;23.80;99.90;;;;;;3499337;40;20559;-61
2021/07/09 09:11:13;;;;;;;10.50;10.00;;;23.80;99.90;;;;;;3495346;40;20468;-62
2021/07/09 09:13:41;;;;;;;10.87;10.27;;;23.80;99.90;;;;;;3498099;40;20472;-62
2021/07/09 09:16:10;;;;;;;11.20;10.70;;;23.80;99.90;;;;;;3497065;40;20480;-62
2021/07/09 09:18:39;;;;;;;10.73;10.33;;;23.80;99.90;;;;;;3490609;40;20456;-62
2021/07/09 09:21:09;;;;;;;11.57;11.07;;;23.80;99.90;;;;;;3494792;40;20476;-62
2021/07/09 09:23:38;;;;;;;11.20;10.70;;;23.80;99.90;;;;;;3494369;40;20633;-62
2021/07/09 09:26:07;;;;;;;12.10;11.50;;;23.80;99.90;;;;;;3496958;40;20488;-62
2021/07/09 09:28:38;;;;;;;13.37;12.57;;;23.80;99.90;;;;;;3499307;40;20845;-62
2021/07/09 09:31:07;;;;;;;12.37;11.83;;;23.80;99.90;;;;;;3499230;40;21331;-62
2021/07/09 09:33:36;;;;;;;12.90;12.20;;;23.80;99.90;;;;;;3500594;40;21069;-62
2021/07/09 09:36:09;;;;;;;12.40;11.87;;;23.80;99.90;;;;;;3498644;40;20603;-62
2021/07/09 09:38:37;;;;;;;12.30;11.70;;;23.70;99.90;;;;;;3499261;40;20513;-62
2021/07/09 09:41:04;;;;;;;11.53;10.90;;;23.70;99.90;;;;;;3518890;40;20471;-62
2021/07/09 09:43:34;;;;;;;12.87;12.17;;;23.70;99.90;;;;;;3521834;40;20470;-62
2021/07/09 09:46:04;;;;;;;12.87;12.13;;;23.70;99.90;;;;;;3517376;40;20458;-62
2021/07/09 09:48:44;;;;;;;12.90;12.13;;;23.70;99.90;;;;;;3511495;40;20684;-62
2021/07/09 09:51:30;;;;;;;13.20;12.07;;;23.70;99.90;;;;;;3515313;40;20552;-62
2021/07/09 09:53:59;;;;;;;13.80;13.00;;;23.70;99.90;;;;;;3513270;40;20603;-61
2021/07/09 09:56:39;;;;;;;12.90;12.30;;;23.70;99.90;;;;;;3503932;40;20666;-62
2021/07/09 09:59:28;;;;;;;13.10;12.40;;;23.70;99.90;;;;;;3514473;40;20692;-62
2021/07/09 10:01:57;;;;;;;12.43;11.83;;;23.70;99.90;;;;;;3507993;40;20782;-61
2021/07/09 10:04:25;;;;;;;12.87;12.20;;;23.70;99.90;;;;;;3517325;40;20467;-62
2021/07/09 10:06:54;;;;;;;13.33;12.40;;;23.70;99.90;;;;;;3518653;40;21212;-62
2021/07/09 10:09:22;;;;;;;11.87;11.27;;;23.70;99.90;;;;;;3401342;40;20933;-62
2021/07/09 10:11:51;;;;;;;12.03;11.33;;;23.70;99.90;;;;;;3456991;40;20530;-62
2021/07/09 10:14:21;;;;;;;11.37;10.77;;;23.70;99.90;;;;;;3513636;40;20577;-61
2021/07/09 10:16:50;;;;;;;12.10;11.50;;;23.70;99.90;;;;;;3512279;40;20825;-62
2021/07/09 10:19:21;;;;;;;12.40;11.80;;;23.70;99.90;;;;;;3512836;40;20711;-62
2021/07/09 10:21:49;;;;;;;12.40;11.70;;;23.70;99.90;;;;;;3511795;40;20465;-62
2021/07/09 10:24:19;;;;;;;11.87;11.37;;;23.70;99.90;;;;;;3514297;40;20547;-62
2021/07/09 10:26:49;;;;;;;12.10;11.50;;;23.70;99.90;;;;;;3512304;40;20470;-62
2021/07/09 10:29:18;;;;;;;12.13;11.53;;;23.70;99.90;;;;;;3515304;40;20455;-62
2021/07/09 10:31:48;;;;;;;12.17;11.53;;;23.80;99.90;;;;;;3518093;40;20503;-62
2021/07/09 10:34:35;;;;;;;11.87;11.27;;;23.70;99.90;;;;;;3517498;40;20561;-61
2021/07/09 10:37:04;;;;;;;11.83;11.23;;;23.80;99.90;;;;;;3519293;40;20749;-62
2021/07/09 10:39:35;;;;;;;11.93;11.43;;;23.70;99.90;;;;;;3516015;40;20610;-62
2021/07/09 10:42:27;;;;;;;12.43;11.63;;;23.70;99.90;;;;;;3517950;40;20929;-62
2021/07/09 10:45:09;;;;;;;13.53;12.70;;;23.70;99.90;;;;;;3511187;40;20928;-62
2021/07/09 10:47:47;;;;;;;12.80;12.20;;;23.70;99.90;;;;;;3519033;40;20529;-62
2021/07/09 10:50:16;;;;;;;13.33;12.53;;;23.70;99.90;;;;;;3518527;40;20466;-62
2021/07/09 10:52:46;;;;;;;12.90;12.30;;;23.80;99.90;;;;;;3503548;40;20479;-62
2021/07/09 10:55:36;;;;;;;12.70;12.10;;;23.80;99.90;;;;;;3507770;40;20944;-62
2021/07/09 10:58:34;;;;;;;14.23;13.43;;;23.80;99.90;;;;;;3515781;40;20718;-62
2021/07/09 11:01:31;;;;;;;14.30;13.60;;;23.80;99.90;;;;;;3511325;40;20513;-62
2021/07/09 11:04:14;;;;;;;13.73;13.03;;;23.80;99.90;;;;;;3517737;40;20593;-62
2021/07/09 11:06:43;;;;;;;13.77;13.07;;;23.70;99.90;;;;;;3517754;40;20577;-62
2021/07/09 11:09:11;;;;;;;13.60;12.80;;;23.70;99.90;;;;;;3510272;40;20466;-62
2021/07/09 11:11:47;;;;;;;13.23;12.50;;;23.70;99.90;;;;;;3521924;40;20553;-62
2021/07/09 11:14:16;;;;;;;13.53;12.80;;;23.70;99.90;;;;;;3518663;40;20462;-62
2021/07/09 11:16:45;;;;;;;13.47;12.87;;;23.80;99.90;;;;;;3516886;40;20482;-62
2021/07/09 11:19:18;;;;;;;13.23;12.33;;;23.80;99.90;;;;;;3509298;40;20479;-62
2021/07/09 11:22:04;;;;;;;14.67;13.80;;;23.80;99.90;;;;;;3499923;40;20705;-62
2021/07/09 11:24:34;;;;;;;13.30;12.60;;;23.80;99.90;;;;;;3499778;40;20979;-62
2021/07/09 11:27:06;;;;;;;12.73;12.00;;;23.80;99.90;;;;;;3500498;40;20673;-62
2021/07/09 11:29:39;;;;;;;13.93;13.03;;;23.80;99.90;;;;;;3488867;40;20457;-62
2021/07/09 11:32:10;;;;;;;12.63;11.90;;;23.80;99.90;;;;;;3500933;40;20465;-62
2021/07/09 11:34:40;;;;;;;12.97;12.17;;;23.80;99.90;;;;;;3490349;40;20702;-62
2021/07/09 11:37:10;;;;;;;12.90;12.20;;;23.80;99.90;;;;;;3490707;40;20535;-62
2021/07/09 11:39:39;;;;;;;12.90;12.20;;;23.80;99.90;;;;;;3427973;40;20663;-62
2021/07/09 11:42:12;;;;;;;13.97;13.23;;;23.80;99.90;;;;;;3517880;40;21259;-59
2021/07/09 11:44:42;;;;;;;13.67;12.87;;;23.80;99.90;;;;;;3520153;40;20557;-61
2021/07/09 11:47:20;;;;;;;14.30;13.40;;;23.80;99.90;;;;;;3506935;40;20507;-62
2021/07/09 11:49:50;;;;;;;13.67;12.87;;;23.70;99.90;;;;;;3510639;40;20483;-62
2021/07/09 11:52:21;;;;;;;13.33;12.40;;;23.80;99.90;;;;;;3510681;40;20444;-62
2021/07/09 11:54:49;;;;;;;12.47;11.77;;;23.80;99.90;;;;;;3498298;40;20897;-62
2021/07/09 11:57:20;;;;;;;13.47;12.67;;;23.80;99.90;;;;;;3509409;40;20511;-62
2021/07/09 11:59:48;;;;;;;13.17;12.37;;;23.80;99.90;;;;;;3506783;40;20464;-62
2021/07/09 12:02:17;;;;;;;12.70;12.10;;;23.80;99.90;;;;;;3508133;40;20880;-62
2021/07/09 12:04:48;;;;;;;13.43;12.67;;;23.80;99.90;;;;;;3510638;40;20463;-62
2021/07/09 12:07:24;;;;;;;12.73;11.83;;;23.80;99.90;;;;;;3511336;40;20551;-62
2021/07/09 12:09:54;;;;;;;12.67;12.07;;;23.80;99.90;;;;;;3513022;40;20740;-62
2021/07/09 12:12:24;;;;;;;13.90;13.10;;;23.70;99.90;;;;;;3515372;40;20448;-62
2021/07/09 12:14:53;;;;;;;13.70;12.90;;;23.80;99.90;;;;;;3514996;40;20461;-61
2021/07/09 12:17:21;;;;;;;12.60;12.00;;;23.80;99.90;;;;;;3515614;40;20559;-62
2021/07/09 12:20:10;;;;;;;13.30;12.70;;;23.80;99.90;;;;;;3511154;40;20456;-62
2021/07/09 12:22:38;;;;;;;13.13;12.43;;;23.80;99.90;;;;;;3505460;40;20704;-62
2021/07/09 12:25:11;;;;;;;13.07;12.30;;;23.80;99.90;;;;;;3512486;40;20507;-62
2021/07/09 12:27:40;;;;;;;12.10;11.50;;;23.80;99.90;;;;;;3512003;40;21250;-61
2021/07/09 12:30:11;;;;;;;12.97;12.27;;;23.80;99.90;;;;;;3512893;40;20486;-62
2021/07/09 12:32:46;;;;;;;13.10;12.50;;;23.80;99.90;;;;;;3511992;40;20511;-62
2021/07/09 12:35:15;;;;;;;13.47;12.67;;;23.80;99.90;;;;;;3520448;40;20485;-62
2021/07/09 12:37:42;;;;;;;13.03;12.13;;;23.80;99.90;;;;;;3526500;40;20510;-62
2021/07/09 12:40:16;;;;;;;14.20;13.40;;;23.80;99.90;;;;;;3517751;40;20819;-62
2021/07/09 12:42:47;;;;;;;13.57;12.87;;;23.80;99.90;;;;;;3512150;40;20494;-62
2021/07/09 12:45:15;;;;;;;14.60;13.80;;;23.80;99.90;;;;;;3511831;40;21061;-62
2021/07/09 12:47:51;;;;;;;13.50;12.73;;;23.80;99.90;;;;;;3510474;40;20466;-61
2021/07/09 12:50:23;;;;;;;12.80;12.10;;;23.80;99.90;;;;;;3511996;40;20538;-62